createdAt,value
2017-08-06T00:00:11.338Z,0
2017-08-06T00:01:11.585Z,0
2017-08-06T00:02:11.264Z,0
2017-08-06T00:03:11.535Z,0
2017-08-06T00:04:11.215Z,0
2017-08-06T00:05:11.499Z,0
2017-08-06T00:06:11.172Z,0
2017-08-06T00:07:11.449Z,0
2017-08-06T00:08:11.430Z,0
2017-08-06T00:09:11.404Z,0
2017-08-06T00:10:11.376Z,0
2017-08-06T00:11:11.895Z,0
2017-08-06T00:12:11.332Z,0
2017-08-06T00:13:11.318Z,0
2017-08-06T00:14:10.989Z,0
2017-08-06T00:15:11.262Z,0
2017-08-06T00:16:10.937Z,0
2017-08-06T00:17:11.215Z,0
2017-08-06T00:18:10.895Z,0
2017-08-06T00:19:11.179Z,0
2017-08-06T00:20:11.155Z,0
2017-08-06T00:21:11.129Z,0
2017-08-06T00:22:11.109Z,0
2017-08-06T00:23:10.789Z,0
2017-08-06T00:24:11.058Z,0
2017-08-06T00:25:11.079Z,0
2017-08-06T00:26:11.047Z,0
2017-08-06T00:27:10.981Z,0
2017-08-06T00:28:10.960Z,0
2017-08-06T00:29:10.957Z,0
2017-08-06T00:30:10.917Z,0
2017-08-06T00:31:10.896Z,0
2017-08-06T00:32:10.577Z,0
2017-08-06T00:33:10.853Z,0
2017-08-06T00:34:10.830Z,0
2017-08-06T00:35:10.805Z,0
2017-08-06T00:36:10.496Z,0
2017-08-06T00:37:10.162Z,0
2017-08-06T00:38:10.737Z,0
2017-08-06T00:39:10.119Z,0
2017-08-06T00:40:10.690Z,0
2017-08-06T00:41:10.664Z,0
2017-08-06T00:42:10.650Z,0
2017-08-06T00:43:10.611Z,0
2017-08-06T00:44:10.302Z,0
2017-08-06T00:45:10.281Z,0
2017-08-06T00:46:10.253Z,0
2017-08-06T00:47:10.229Z,0
2017-08-06T00:48:10.211Z,0
2017-08-06T00:49:10.473Z,0
2017-08-06T00:50:10.159Z,0
2017-08-06T00:51:10.145Z,0
2017-08-06T00:52:10.414Z,0
2017-08-06T00:53:10.085Z,0
2017-08-06T00:54:10.362Z,0
2017-08-06T00:55:10.338Z,0
2017-08-06T00:56:10.026Z,0
2017-08-06T00:57:10.300Z,0
2017-08-06T00:58:09.973Z,0
2017-08-06T00:59:10.247Z,0
2017-08-06T01:00:09.931Z,0
2017-08-06T01:01:10.205Z,0
2017-08-06T01:02:09.880Z,0
2017-08-06T01:03:09.861Z,0
2017-08-06T01:04:10.136Z,0
2017-08-06T01:05:10.111Z,0
2017-08-06T01:06:09.810Z,0
2017-08-06T01:07:10.065Z,0
2017-08-06T01:08:10.032Z,0
2017-08-06T01:09:10.018Z,0
2017-08-06T01:10:09.989Z,0
2017-08-06T01:11:09.977Z,0
2017-08-06T01:12:09.653Z,0
2017-08-06T01:13:09.629Z,0
2017-08-06T01:14:09.604Z,0
2017-08-06T01:15:09.586Z,0
2017-08-06T01:16:09.856Z,0
2017-08-06T01:17:09.829Z,0
2017-08-06T01:18:09.806Z,0
2017-08-06T01:19:09.488Z,0
2017-08-06T01:20:09.186Z,0
2017-08-06T01:21:09.445Z,0
2017-08-06T01:22:09.723Z,0
2017-08-06T01:23:09.689Z,0
2017-08-06T01:24:09.369Z,0
2017-08-06T01:25:09.353Z,0
2017-08-06T01:26:09.628Z,0
2017-08-06T01:27:09.303Z,0
2017-08-06T01:28:08.983Z,0
2017-08-06T01:29:09.551Z,0
2017-08-06T01:30:09.532Z,0
2017-08-06T01:31:09.502Z,0
2017-08-06T01:32:09.182Z,0
2017-08-06T01:33:09.461Z,0
2017-08-06T01:34:09.434Z,0
2017-08-06T01:35:09.112Z,0
2017-08-06T01:36:09.390Z,0
2017-08-06T01:37:09.360Z,0
2017-08-06T01:38:09.337Z,0
2017-08-06T01:39:09.312Z,0
2017-08-06T01:40:09.000Z,0
2017-08-06T01:41:09.275Z,0
2017-08-06T01:42:09.250Z,0
2017-08-06T01:43:09.226Z,0
2017-08-06T01:44:08.921Z,0
2017-08-06T01:45:08.881Z,0
2017-08-06T01:46:09.172Z,0
2017-08-06T01:47:09.136Z,0
2017-08-06T01:48:09.122Z,0
2017-08-06T01:49:09.086Z,0
2017-08-06T01:50:09.061Z,0
2017-08-06T01:51:09.033Z,0
2017-08-06T01:52:08.709Z,0
2017-08-06T01:53:08.696Z,0
2017-08-06T01:54:08.688Z,0
2017-08-06T01:55:08.947Z,0
2017-08-06T01:56:08.920Z,0
2017-08-06T01:57:08.903Z,0
2017-08-06T01:58:08.868Z,0
2017-08-06T01:59:08.838Z,0
2017-08-06T02:00:08.589Z,0
2017-08-06T02:01:08.803Z,0
2017-08-06T02:02:08.480Z,0
2017-08-06T02:03:08.454Z,0
2017-08-06T02:04:08.721Z,0
2017-08-06T02:05:08.703Z,0
2017-08-06T02:06:08.686Z,0
2017-08-06T02:07:08.354Z,0
2017-08-06T02:08:08.335Z,0
2017-08-06T02:09:08.613Z,0
2017-08-06T02:10:08.288Z,0
2017-08-06T02:11:08.562Z,0
2017-08-06T02:12:08.249Z,0
2017-08-06T02:13:08.511Z,0
2017-08-06T02:14:08.210Z,0
2017-08-06T02:15:08.170Z,0
2017-08-06T02:16:08.452Z,0
2017-08-06T02:17:08.423Z,0
2017-08-06T02:18:08.396Z,0
2017-08-06T02:19:08.378Z,0
2017-08-06T02:20:08.049Z,0
2017-08-06T02:21:08.024Z,0
2017-08-06T02:22:08.300Z,0
2017-08-06T02:23:08.277Z,0
2017-08-06T02:24:08.254Z,0
2017-08-06T02:25:07.936Z,0
2017-08-06T02:26:07.904Z,0
2017-08-06T02:27:08.184Z,0
2017-08-06T02:28:08.163Z,0
2017-08-06T02:29:08.135Z,0
2017-08-06T02:30:07.816Z,0
2017-08-06T02:31:08.089Z,0
2017-08-06T02:32:08.064Z,0
2017-08-06T02:33:07.750Z,0
2017-08-06T02:34:08.009Z,0
2017-08-06T02:35:07.397Z,0
2017-08-06T02:36:07.669Z,0
2017-08-06T02:37:07.644Z,0
2017-08-06T02:38:07.621Z,0
2017-08-06T02:39:07.300Z,0
2017-08-06T02:40:07.279Z,0
2017-08-06T02:41:07.255Z,0
2017-08-06T02:42:07.820Z,0
2017-08-06T02:43:07.801Z,0
2017-08-06T02:44:07.478Z,0
2017-08-06T02:45:07.762Z,0
2017-08-06T02:46:07.426Z,0
2017-08-06T02:47:07.704Z,0
2017-08-06T02:48:07.383Z,0
2017-08-06T02:49:07.656Z,0
2017-08-06T02:50:07.338Z,0
2017-08-06T02:51:07.611Z,0
2017-08-06T02:52:07.296Z,0
2017-08-06T02:53:07.549Z,0
2017-08-06T02:54:07.228Z,0
2017-08-06T02:55:07.211Z,0
2017-08-06T02:56:07.483Z,0
2017-08-06T02:57:07.457Z,0
2017-08-06T02:58:07.437Z,0
2017-08-06T02:59:07.410Z,0
2017-08-06T03:00:07.087Z,0
2017-08-06T03:01:07.363Z,0
2017-08-06T03:02:07.346Z,0
2017-08-06T03:03:07.313Z,0
2017-08-06T03:04:07.286Z,0
2017-08-06T03:05:07.040Z,0
2017-08-06T03:06:07.310Z,0
2017-08-06T03:07:06.969Z,0
2017-08-06T03:08:06.929Z,0
2017-08-06T03:09:07.233Z,0
2017-08-06T03:10:07.199Z,0
2017-08-06T03:11:06.870Z,0
2017-08-06T03:12:07.164Z,0
2017-08-06T03:13:07.259Z,0
2017-08-06T03:14:06.458Z,0
2017-08-06T03:15:07.056Z,0
2017-08-06T03:16:07.028Z,0
2017-08-06T03:17:07.098Z,0
2017-08-06T03:18:06.982Z,0
2017-08-06T03:19:07.010Z,0
2017-08-06T03:20:06.704Z,0
2017-08-06T03:21:06.652Z,0
2017-08-06T03:22:06.938Z,0
2017-08-06T03:23:06.557Z,0
2017-08-06T03:24:06.893Z,0
2017-08-06T03:25:06.555Z,0
2017-08-06T03:26:06.824Z,0
2017-08-06T03:27:06.450Z,0
2017-08-06T03:28:06.739Z,0
2017-08-06T03:29:06.699Z,0
2017-08-06T03:30:06.402Z,0
2017-08-06T03:31:06.675Z,0
2017-08-06T03:32:06.679Z,0
2017-08-06T03:33:06.621Z,0
2017-08-06T03:34:06.580Z,0
2017-08-06T03:35:06.314Z,0
2017-08-06T03:36:06.275Z,0
2017-08-06T03:37:06.273Z,0
2017-08-06T03:38:06.260Z,0
2017-08-06T03:39:05.879Z,0
2017-08-06T03:40:06.155Z,0
2017-08-06T03:41:06.156Z,0
2017-08-06T03:42:05.769Z,0
2017-08-06T03:43:06.377Z,0
2017-08-06T03:44:06.330Z,0
2017-08-06T03:45:06.327Z,0
2017-08-06T03:46:06.327Z,0
2017-08-06T03:47:06.281Z,5
2017-08-06T03:48:06.310Z,5
2017-08-06T03:49:06.269Z,5
2017-08-06T03:50:06.179Z,5
2017-08-06T03:51:06.143Z,5
2017-08-06T03:52:06.120Z,5
2017-08-06T03:53:06.094Z,10
2017-08-06T03:54:05.778Z,10
2017-08-06T03:55:06.041Z,10
2017-08-06T03:56:06.020Z,10
2017-08-06T03:57:05.695Z,10
2017-08-06T03:58:05.969Z,15
2017-08-06T03:59:05.962Z,15
2017-08-06T04:00:05.630Z,15
2017-08-06T04:01:05.902Z,20
2017-08-06T04:02:05.866Z,20
2017-08-06T04:03:05.565Z,20
2017-08-06T04:04:05.832Z,25
2017-08-06T04:05:05.799Z,25
2017-08-06T04:06:05.778Z,25
2017-08-06T04:07:05.750Z,30
2017-08-06T04:08:05.725Z,30
2017-08-06T04:09:05.701Z,35
2017-08-06T04:10:05.691Z,35
2017-08-06T04:11:05.656Z,35
2017-08-06T04:12:05.623Z,40
2017-08-06T04:13:05.612Z,40
2017-08-06T04:14:05.279Z,45
2017-08-06T04:15:05.577Z,45
2017-08-06T04:16:05.233Z,50
2017-08-06T04:17:05.505Z,50
2017-08-06T04:18:05.183Z,55
2017-08-06T04:19:05.159Z,55
2017-08-06T04:20:05.144Z,60
2017-08-06T04:21:05.406Z,65
2017-08-06T04:22:04.494Z,65
2017-08-06T04:23:05.358Z,70
2017-08-06T04:24:05.045Z,70
2017-08-06T04:25:05.308Z,75
2017-08-06T04:26:05.296Z,75
2017-08-06T04:27:05.263Z,80
2017-08-06T04:28:05.234Z,85
2017-08-06T04:29:04.907Z,85
2017-08-06T04:30:05.225Z,90
2017-08-06T04:31:04.865Z,95
2017-08-06T04:32:05.138Z,95
2017-08-06T04:33:04.519Z,100
2017-08-06T04:34:05.085Z,100
2017-08-06T04:35:04.772Z,105
2017-08-06T04:36:04.745Z,105
2017-08-06T04:37:04.731Z,110
2017-08-06T04:38:04.984Z,115
2017-08-06T04:39:04.671Z,115
2017-08-06T04:40:04.662Z,120
2017-08-06T04:41:04.911Z,120
2017-08-06T04:42:04.597Z,125
2017-08-06T04:43:04.573Z,130
2017-08-06T04:44:04.550Z,130
2017-08-06T04:45:04.529Z,135
2017-08-06T04:46:04.505Z,135
2017-08-06T04:47:04.768Z,140
2017-08-06T04:48:04.744Z,140
2017-08-06T04:49:04.426Z,145
2017-08-06T04:50:04.405Z,145
2017-08-06T04:51:04.680Z,150
2017-08-06T04:52:04.646Z,150
2017-08-06T04:53:04.647Z,155
2017-08-06T04:54:04.605Z,155
2017-08-06T04:55:04.570Z,160
2017-08-06T04:56:04.562Z,165
2017-08-06T04:57:04.538Z,165
2017-08-06T04:58:04.509Z,170
2017-08-06T04:59:04.478Z,170
2017-08-06T05:00:04.452Z,175
2017-08-06T05:01:03.837Z,175
2017-08-06T05:02:04.408Z,180
2017-08-06T05:03:04.385Z,180
2017-08-06T05:04:04.379Z,185
2017-08-06T05:05:04.036Z,185
2017-08-06T05:06:04.306Z,190
2017-08-06T05:07:04.286Z,195
2017-08-06T05:08:04.267Z,195
2017-08-06T05:09:03.940Z,200
2017-08-06T05:10:03.914Z,200
2017-08-06T05:11:03.605Z,205
2017-08-06T05:12:04.173Z,205
2017-08-06T05:13:03.843Z,210
2017-08-06T05:14:04.114Z,210
2017-08-06T05:15:04.093Z,215
2017-08-06T05:16:03.775Z,215
2017-08-06T05:17:03.748Z,220
2017-08-06T05:18:03.732Z,220
2017-08-06T05:19:04.005Z,220
2017-08-06T05:20:03.673Z,220
2017-08-06T05:21:03.953Z,225
2017-08-06T05:22:03.942Z,225
2017-08-06T05:23:03.903Z,230
2017-08-06T05:24:03.871Z,230
2017-08-06T05:25:03.848Z,235
2017-08-06T05:26:03.836Z,240
2017-08-06T05:27:03.801Z,240
2017-08-06T05:28:03.484Z,245
2017-08-06T05:29:03.775Z,250
2017-08-06T05:30:03.439Z,250
2017-08-06T05:31:03.756Z,255
2017-08-06T05:32:03.697Z,255
2017-08-06T05:33:03.681Z,260
2017-08-06T05:34:03.636Z,265
2017-08-06T05:35:03.617Z,270
2017-08-06T05:36:03.293Z,270
2017-08-06T05:37:03.562Z,275
2017-08-06T05:38:03.536Z,275
2017-08-06T05:39:03.218Z,280
2017-08-06T05:40:03.503Z,280
2017-08-06T05:41:03.475Z,285
2017-08-06T05:42:03.445Z,290
2017-08-06T05:43:03.425Z,290
2017-08-06T05:44:03.099Z,295
2017-08-06T05:45:03.370Z,295
2017-08-06T05:46:03.050Z,295
2017-08-06T05:47:03.326Z,295
2017-08-06T05:48:03.006Z,300
2017-08-06T05:49:02.980Z,300
2017-08-06T05:50:03.252Z,305
2017-08-06T05:51:03.232Z,305
2017-08-06T05:52:02.945Z,305
2017-08-06T05:53:03.188Z,310
2017-08-06T05:54:02.870Z,310
2017-08-06T05:55:03.148Z,320
2017-08-06T05:56:03.121Z,325
2017-08-06T05:57:03.102Z,335
2017-08-06T05:58:03.072Z,340
2017-08-06T05:59:03.049Z,340
2017-08-06T06:00:02.724Z,350
2017-08-06T06:01:03.005Z,355
2017-08-06T06:02:02.978Z,375
2017-08-06T06:03:02.954Z,555
2017-08-06T06:04:02.978Z,765
2017-08-06T06:05:02.918Z,860
2017-08-06T06:06:02.888Z,875
2017-08-06T06:07:02.870Z,895
2017-08-06T06:08:02.545Z,905
2017-08-06T06:09:02.822Z,920
2017-08-06T06:10:02.996Z,940
2017-08-06T06:11:02.777Z,950
2017-08-06T06:12:02.457Z,985
2017-08-06T06:13:02.227Z,990
2017-08-06T06:14:02.715Z,995
2017-08-06T06:15:02.692Z,990
2017-08-06T06:16:02.374Z,1010
2017-08-06T06:17:02.652Z,1040
2017-08-06T06:18:02.635Z,1045
2017-08-06T06:19:02.318Z,1065
2017-08-06T06:20:02.291Z,1040
2017-08-06T06:21:02.268Z,1060
2017-08-06T06:22:02.546Z,1050
2017-08-06T06:23:02.528Z,1060
2017-08-06T06:24:02.503Z,1065
2017-08-06T06:25:02.190Z,1085
2017-08-06T06:26:02.180Z,1065
2017-08-06T06:27:02.453Z,1110
2017-08-06T06:28:02.428Z,1110
2017-08-06T06:29:02.412Z,1100
2017-08-06T06:30:02.393Z,1155
2017-08-06T06:31:02.074Z,1145
2017-08-06T06:32:02.356Z,1145
2017-08-06T06:33:02.334Z,1115
2017-08-06T06:34:02.307Z,1160
2017-08-06T06:35:02.295Z,1095
2017-08-06T06:36:02.278Z,735
2017-08-06T06:37:02.269Z,430
2017-08-06T06:38:01.942Z,395
2017-08-06T06:39:02.221Z,400
2017-08-06T06:40:02.222Z,420
2017-08-06T06:41:02.182Z,630
2017-08-06T06:42:01.890Z,1000
2017-08-06T06:43:02.148Z,1165
2017-08-06T06:44:02.122Z,1195
2017-08-06T06:45:02.105Z,1240
2017-08-06T06:46:02.094Z,1255
2017-08-06T06:47:01.827Z,1215
2017-08-06T06:48:02.054Z,1235
2017-08-06T06:49:02.036Z,1265
2017-08-06T06:50:02.014Z,1315
2017-08-06T06:51:01.997Z,1275
2017-08-06T06:52:01.973Z,1000
2017-08-06T06:53:01.954Z,645
2017-08-06T06:54:01.941Z,415
2017-08-06T06:55:01.927Z,415
2017-08-06T06:56:01.912Z,430
2017-08-06T06:57:01.890Z,450
2017-08-06T06:58:01.871Z,645
2017-08-06T06:59:01.546Z,1045
2017-08-06T07:00:01.830Z,1365
2017-08-06T07:01:01.815Z,1410
2017-08-06T07:02:01.798Z,1430
2017-08-06T07:03:01.774Z,1445
2017-08-06T07:04:01.466Z,1500
2017-08-06T07:05:01.733Z,1570
2017-08-06T07:06:01.716Z,1610
2017-08-06T07:07:01.403Z,1535
2017-08-06T07:08:01.689Z,1495
2017-08-06T07:09:01.069Z,1545
2017-08-06T07:10:01.357Z,1515
2017-08-06T07:11:02.008Z,1480
2017-08-06T07:12:01.316Z,1440
2017-08-06T07:13:01.599Z,1400
2017-08-06T07:14:01.579Z,1230
2017-08-06T07:15:01.561Z,1180
2017-08-06T07:16:01.547Z,1250
2017-08-06T07:17:01.236Z,1260
2017-08-06T07:18:01.510Z,1405
2017-08-06T07:19:01.501Z,775
2017-08-06T07:20:01.489Z,1385
2017-08-06T07:21:01.460Z,1280
2017-08-06T07:22:01.162Z,1285
2017-08-06T07:23:01.440Z,1175
2017-08-06T07:24:01.408Z,1150
2017-08-06T07:25:01.400Z,1150
2017-08-06T07:26:01.390Z,1110
2017-08-06T07:27:01.417Z,1120
2017-08-06T07:28:01.355Z,1100
2017-08-06T07:29:01.329Z,1045
2017-08-06T07:30:01.335Z,1015
2017-08-06T07:31:01.305Z,1000
2017-08-06T07:32:01.297Z,1050
2017-08-06T07:33:01.268Z,1380
2017-08-06T07:34:01.273Z,1650
2017-08-06T07:35:01.243Z,1725
2017-08-06T07:36:01.224Z,1750
2017-08-06T07:37:01.217Z,1755
2017-08-06T07:38:01.198Z,1690
2017-08-06T07:39:01.182Z,1875
2017-08-06T07:40:01.185Z,1985
2017-08-06T07:41:00.858Z,2070
2017-08-06T07:42:00.843Z,2105
2017-08-06T07:43:00.842Z,2025
2017-08-06T07:44:01.111Z,2010
2017-08-06T07:45:01.097Z,1860
2017-08-06T07:46:01.081Z,1790
2017-08-06T07:47:00.778Z,1775
2017-08-06T07:48:01.054Z,1715
2017-08-06T07:49:01.056Z,670
2017-08-06T07:50:01.037Z,1775
2017-08-06T07:51:01.024Z,525
2017-08-06T07:52:01.015Z,420
2017-08-06T07:53:00.987Z,450
2017-08-06T07:54:00.977Z,1635
2017-08-06T07:55:00.959Z,505
2017-08-06T07:56:00.650Z,1720
2017-08-06T07:57:00.943Z,1620
2017-08-06T07:58:00.622Z,1895
2017-08-06T07:59:00.609Z,1520
2017-08-06T08:00:00.898Z,530
2017-08-06T08:01:00.877Z,1835
2017-08-06T08:02:00.863Z,1865
2017-08-06T08:03:00.861Z,1880
2017-08-06T08:04:00.881Z,1880
2017-08-06T08:05:00.816Z,1925
2017-08-06T08:06:00.502Z,2025
2017-08-06T08:07:00.794Z,1995
2017-08-06T08:08:00.772Z,2005
2017-08-06T08:09:00.757Z,1990
2017-08-06T08:10:00.444Z,1925
2017-08-06T08:11:00.729Z,1955
2017-08-06T08:12:00.717Z,2020
2017-08-06T08:13:00.706Z,1990
2017-08-06T08:14:00.685Z,2060
2017-08-06T08:15:00.676Z,2065
2017-08-06T08:16:00.666Z,2120
2017-08-06T08:17:00.362Z,2165
2017-08-06T08:18:00.645Z,2195
2017-08-06T08:19:00.331Z,2320
2017-08-06T08:20:00.622Z,2295
2017-08-06T08:21:00.304Z,2240
2017-08-06T08:22:00.586Z,2310
2017-08-06T08:23:00.279Z,2230
2017-08-06T08:24:00.569Z,2185
2017-08-06T08:25:00.552Z,2110
2017-08-06T08:26:00.251Z,2045
2017-08-06T08:27:00.236Z,1910
2017-08-06T08:28:00.520Z,910
2017-08-06T08:28:59.917Z,2175
2017-08-06T08:30:00.200Z,2185
2017-08-06T08:31:00.197Z,2220
2017-08-06T08:32:00.174Z,2255
2017-08-06T08:33:00.167Z,2305
2017-08-06T08:34:00.163Z,2300
2017-08-06T08:35:00.441Z,2320
2017-08-06T08:36:00.432Z,2360
2017-08-06T08:37:00.421Z,1570
2017-08-06T08:38:00.407Z,2340
2017-08-06T08:39:00.398Z,1960
2017-08-06T08:40:00.385Z,2400
2017-08-06T08:41:00.079Z,2250
2017-08-06T08:42:00.361Z,2405
2017-08-06T08:43:00.352Z,2275
2017-08-06T08:44:00.347Z,2275
2017-08-06T08:45:00.343Z,2375
2017-08-06T08:46:00.322Z,2360
2017-08-06T08:47:00.016Z,2370
2017-08-06T08:48:00.304Z,610
2017-08-06T08:48:59.998Z,2185
2017-08-06T08:50:00.282Z,2360
2017-08-06T08:50:59.683Z,2375
2017-08-06T08:52:00.255Z,2450
2017-08-06T08:52:59.955Z,2590
2017-08-06T08:53:59.942Z,2535
2017-08-06T08:55:01.212Z,2520
2017-08-06T08:55:59.918Z,2420
2017-08-06T08:57:00.875Z,2390
2017-08-06T08:57:59.778Z,1945
2017-08-06T08:59:00.186Z,2420
2017-08-06T09:00:01.055Z,2325
2017-08-06T09:01:00.046Z,2335
2017-08-06T09:02:00.952Z,2415
2017-08-06T09:03:00.908Z,2470
2017-08-06T09:04:00.143Z,2430
2017-08-06T09:04:59.829Z,2400
2017-08-06T09:06:00.122Z,2375
2017-08-06T09:07:00.113Z,2435
2017-08-06T09:08:00.119Z,2305
2017-08-06T09:09:00.088Z,2280
2017-08-06T09:10:00.078Z,2335
2017-08-06T09:11:00.070Z,2350
2017-08-06T09:12:00.073Z,2410
2017-08-06T09:13:00.445Z,2515
2017-08-06T09:14:00.040Z,2480
2017-08-06T09:15:00.071Z,2460
2017-08-06T09:15:59.737Z,2470
2017-08-06T09:16:59.726Z,2405
2017-08-06T09:18:00.015Z,1105
2017-08-06T09:19:00.001Z,680
2017-08-06T09:19:59.718Z,1995
2017-08-06T09:20:59.996Z,2390
2017-08-06T09:21:59.385Z,2350
2017-08-06T09:22:59.077Z,2415
2017-08-06T09:23:59.664Z,2520
2017-08-06T09:24:59.960Z,2595
2017-08-06T09:25:59.935Z,2610
2017-08-06T09:26:59.934Z,2640
2017-08-06T09:27:59.958Z,2670
2017-08-06T09:28:59.922Z,2680
2017-08-06T09:29:59.606Z,2700
2017-08-06T09:30:59.612Z,2810
2017-08-06T09:31:59.892Z,2765
2017-08-06T09:32:59.592Z,1145
2017-08-06T09:33:59.577Z,1020
2017-08-06T09:34:59.869Z,2755
2017-08-06T09:35:59.857Z,2655
2017-08-06T09:36:59.865Z,2650
2017-08-06T09:37:59.855Z,710
2017-08-06T09:38:59.539Z,605
2017-08-06T09:39:59.237Z,600
2017-08-06T09:40:59.525Z,640
2017-08-06T09:41:59.807Z,1790
2017-08-06T09:42:59.504Z,2585
2017-08-06T09:43:59.800Z,2565
2017-08-06T09:44:59.189Z,2525
2017-08-06T09:45:59.777Z,2670
2017-08-06T09:46:59.763Z,2735
2017-08-06T09:47:59.755Z,2705
2017-08-06T09:48:59.761Z,2630
2017-08-06T09:49:59.446Z,2645
2017-08-06T09:50:59.148Z,2710
2017-08-06T09:51:59.426Z,2755
2017-08-06T09:52:59.425Z,2815
2017-08-06T09:53:59.710Z,2745
2017-08-06T09:54:59.404Z,2715
2017-08-06T09:55:59.098Z,2670
2017-08-06T09:56:59.399Z,2700
2017-08-06T09:57:59.090Z,2750
2017-08-06T09:58:59.367Z,2650
2017-08-06T09:59:59.373Z,2720
2017-08-06T10:00:59.357Z,2795
2017-08-06T10:01:59.368Z,865
2017-08-06T10:02:59.344Z,850
2017-08-06T10:03:59.055Z,1395
2017-08-06T10:04:59.338Z,2610
2017-08-06T10:05:59.033Z,2580
2017-08-06T10:06:59.325Z,2585
2017-08-06T10:07:59.318Z,2520
2017-08-06T10:08:59.606Z,2625
2017-08-06T10:09:59.007Z,2775
2017-08-06T10:10:59.295Z,2820
2017-08-06T10:11:59.629Z,2810
2017-08-06T10:12:59.607Z,2780
2017-08-06T10:13:59.564Z,2150
2017-08-06T10:14:59.267Z,2835
2017-08-06T10:15:59.564Z,2835
2017-08-06T10:16:59.251Z,2750
2017-08-06T10:17:58.953Z,2740
2017-08-06T10:18:59.239Z,2785
2017-08-06T10:19:59.239Z,2705
2017-08-06T10:20:59.250Z,2755
2017-08-06T10:21:59.525Z,2825
2017-08-06T10:22:59.231Z,2740
2017-08-06T10:23:59.506Z,2595
2017-08-06T10:24:59.510Z,2665
2017-08-06T10:25:58.907Z,2655
2017-08-06T10:26:59.210Z,2710
2017-08-06T10:27:59.198Z,690
2017-08-06T10:28:59.481Z,2285
2017-08-06T10:29:59.947Z,2645
2017-08-06T10:30:59.470Z,2290
2017-08-06T10:31:59.470Z,2685
2017-08-06T10:32:59.458Z,2620
2017-08-06T10:33:59.156Z,2685
2017-08-06T10:34:59.452Z,2660
2017-08-06T10:35:59.143Z,2655
2017-08-06T10:36:59.432Z,2700
2017-08-06T10:37:59.129Z,2530
2017-08-06T10:38:59.419Z,1515
2017-08-06T10:39:59.118Z,880
2017-08-06T10:40:58.808Z,905
2017-08-06T10:41:59.101Z,1070
2017-08-06T10:42:59.094Z,1955
2017-08-06T10:43:59.388Z,2665
2017-08-06T10:44:59.379Z,2665
2017-08-06T10:45:59.365Z,745
2017-08-06T10:46:59.351Z,715
2017-08-06T10:47:59.369Z,705
2017-08-06T10:48:59.049Z,705
2017-08-06T10:49:59.333Z,695
2017-08-06T10:50:59.326Z,720
2017-08-06T10:51:59.017Z,2720
2017-08-06T10:52:58.707Z,2840
2017-08-06T10:53:58.994Z,2875
2017-08-06T10:54:59.280Z,2900
2017-08-06T10:55:59.278Z,2925
2017-08-06T10:56:59.260Z,2980
2017-08-06T10:57:58.953Z,3050
2017-08-06T10:58:59.243Z,3080
2017-08-06T10:59:58.654Z,1015
2017-08-06T11:00:59.226Z,990
2017-08-06T11:01:58.913Z,965
2017-08-06T11:02:59.249Z,1090
2017-08-06T11:03:59.189Z,1185
2017-08-06T11:04:58.878Z,2850
2017-08-06T11:05:58.874Z,1035
2017-08-06T11:06:58.567Z,2890
2017-08-06T11:07:58.557Z,1050
2017-08-06T11:08:59.137Z,1000
2017-08-06T11:09:59.123Z,955
2017-08-06T11:10:59.290Z,930
2017-08-06T11:11:58.805Z,945
2017-08-06T11:12:59.375Z,1065
2017-08-06T11:13:59.055Z,2945
2017-08-06T11:14:59.065Z,2900
2017-08-06T11:15:58.755Z,2940
2017-08-06T11:16:58.746Z,2905
2017-08-06T11:17:58.437Z,2850
2017-08-06T11:18:59.016Z,1845
2017-08-06T11:19:59.019Z,1025
2017-08-06T11:20:58.405Z,1265
2017-08-06T11:21:58.688Z,980
2017-08-06T11:22:58.966Z,945
2017-08-06T11:23:58.666Z,2075
2017-08-06T11:24:58.652Z,1065
2017-08-06T11:25:58.637Z,2375
2017-08-06T11:26:58.326Z,1040
2017-08-06T11:27:58.618Z,1930
2017-08-06T11:28:58.894Z,2000
2017-08-06T11:29:58.880Z,2205
2017-08-06T11:30:58.883Z,2095
2017-08-06T11:31:58.567Z,690
2017-08-06T11:32:58.861Z,630
2017-08-06T11:33:58.845Z,585
2017-08-06T11:34:58.826Z,550
2017-08-06T11:35:58.520Z,515
2017-08-06T11:36:58.518Z,525
2017-08-06T11:37:58.496Z,540
2017-08-06T11:38:58.479Z,550
2017-08-06T11:39:58.473Z,580
2017-08-06T11:40:57.863Z,685
2017-08-06T11:41:58.735Z,715
2017-08-06T11:42:58.425Z,790
2017-08-06T11:43:58.718Z,1295
2017-08-06T11:44:58.395Z,1255
2017-08-06T11:45:58.386Z,1195
2017-08-06T11:46:58.068Z,1165
2017-08-06T11:47:58.665Z,970
2017-08-06T11:48:58.637Z,985
2017-08-06T11:49:58.328Z,840
2017-08-06T11:50:58.318Z,815
2017-08-06T11:51:58.302Z,795
2017-08-06T11:52:58.573Z,790
2017-08-06T11:53:58.263Z,1020
2017-08-06T11:54:58.249Z,995
2017-08-06T11:55:57.945Z,1010
2017-08-06T11:56:58.528Z,1005
2017-08-06T11:57:58.214Z,1015
2017-08-06T11:58:58.491Z,1050
2017-08-06T11:59:58.478Z,1040
2017-08-06T12:00:58.173Z,1075
2017-08-06T12:01:58.476Z,1105
2017-08-06T12:02:57.853Z,1130
2017-08-06T12:03:58.128Z,1100
2017-08-06T12:04:58.412Z,1065
2017-08-06T12:05:57.808Z,1045
2017-08-06T12:06:57.797Z,950
2017-08-06T12:07:58.068Z,895
2017-08-06T12:08:58.357Z,1060
2017-08-06T12:09:58.348Z,1080
2017-08-06T12:10:58.323Z,1105
2017-08-06T12:11:57.727Z,1105
2017-08-06T12:12:58.306Z,1080
2017-08-06T12:13:58.915Z,1010
2017-08-06T12:14:57.985Z,955
2017-08-06T12:15:58.272Z,820
2017-08-06T12:16:58.253Z,745
2017-08-06T12:17:57.939Z,670
2017-08-06T12:18:57.935Z,880
2017-08-06T12:19:58.224Z,810
2017-08-06T12:20:57.910Z,850
2017-08-06T12:21:57.891Z,930
2017-08-06T12:22:58.173Z,945
2017-08-06T12:23:58.164Z,815
2017-08-06T12:24:58.146Z,915
2017-08-06T12:25:58.126Z,960
2017-08-06T12:26:57.820Z,950
2017-08-06T12:27:58.106Z,985
2017-08-06T12:28:57.789Z,805
2017-08-06T12:29:57.530Z,675
2017-08-06T12:30:57.770Z,650
2017-08-06T12:31:57.753Z,615
2017-08-06T12:32:57.738Z,620
2017-08-06T12:33:58.056Z,620
2017-08-06T12:34:57.715Z,645
2017-08-06T12:35:57.692Z,690
2017-08-06T12:36:58.011Z,750
2017-08-06T12:37:57.964Z,1310
2017-08-06T12:38:57.946Z,1410
2017-08-06T12:39:57.637Z,1445
2017-08-06T12:40:57.935Z,1335
2017-08-06T12:41:57.609Z,880
2017-08-06T12:42:57.598Z,1015
2017-08-06T12:43:57.590Z,855
2017-08-06T12:44:57.869Z,820
2017-08-06T12:45:57.853Z,735
2017-08-06T12:46:57.841Z,695
2017-08-06T12:47:57.822Z,715
2017-08-06T12:48:57.208Z,800
2017-08-06T12:49:57.207Z,990
2017-08-06T12:50:57.788Z,965
2017-08-06T12:51:57.761Z,1630
2017-08-06T12:52:57.451Z,940
2017-08-06T12:53:57.452Z,915
2017-08-06T12:54:57.716Z,1980
2017-08-06T12:55:57.112Z,2210
2017-08-06T12:56:57.684Z,2170
2017-08-06T12:57:57.691Z,2250
2017-08-06T12:58:57.661Z,2295
2017-08-06T12:59:57.376Z,2270
2017-08-06T13:00:57.627Z,2325
2017-08-06T13:01:57.617Z,2305
2017-08-06T13:02:57.617Z,2335
2017-08-06T13:03:57.592Z,2455
2017-08-06T13:04:57.283Z,2575
2017-08-06T13:05:57.265Z,2750
2017-08-06T13:06:57.559Z,2830
2017-08-06T13:07:56.947Z,2925
2017-08-06T13:08:57.525Z,2880
2017-08-06T13:09:57.218Z,2820
2017-08-06T13:10:57.203Z,2795
2017-08-06T13:11:57.643Z,2790
2017-08-06T13:12:57.475Z,2765
2017-08-06T13:13:57.467Z,2840
2017-08-06T13:14:57.386Z,2860
2017-08-06T13:15:57.437Z,2900
2017-08-06T13:16:57.422Z,2910
2017-08-06T13:17:57.124Z,2910
2017-08-06T13:18:57.401Z,2795
2017-08-06T13:19:57.392Z,2540
2017-08-06T13:20:57.382Z,2805
2017-08-06T13:21:57.378Z,670
2017-08-06T13:22:57.358Z,1135
2017-08-06T13:23:57.347Z,630
2017-08-06T13:24:57.335Z,635
2017-08-06T13:25:57.323Z,630
2017-08-06T13:26:57.018Z,600
2017-08-06T13:27:57.300Z,600
2017-08-06T13:28:57.295Z,650
2017-08-06T13:29:56.682Z,2820
2017-08-06T13:30:56.971Z,2930
2017-08-06T13:31:57.266Z,2975
2017-08-06T13:32:57.238Z,2965
2017-08-06T13:33:56.938Z,2920
2017-08-06T13:34:57.221Z,2905
2017-08-06T13:35:56.941Z,2920
2017-08-06T13:36:56.903Z,2975
2017-08-06T13:37:57.184Z,2905
2017-08-06T13:38:57.193Z,2915
2017-08-06T13:39:57.165Z,2930
2017-08-06T13:40:57.150Z,2895
2017-08-06T13:41:57.143Z,2890
2017-08-06T13:42:57.131Z,2825
2017-08-06T13:43:56.838Z,2790
2017-08-06T13:44:56.819Z,2725
2017-08-06T13:45:57.111Z,2780
2017-08-06T13:46:57.098Z,2770
2017-08-06T13:47:56.801Z,2685
2017-08-06T13:48:56.787Z,2750
2017-08-06T13:49:57.073Z,2760
2017-08-06T13:50:57.072Z,2785